createdAt,value
2018-01-29T00:00:38.784Z,1037.65
2018-01-29T00:01:40.135Z,1037.65
2018-01-29T00:02:39.497Z,1037.62
2018-01-29T00:03:39.875Z,1037.63
2018-01-29T00:04:38.691Z,1037.67
2018-01-29T00:05:38.766Z,1037.63
2018-01-29T00:06:39.342Z,1037.63
2018-01-29T00:07:38.829Z,1037.58
2018-01-29T00:08:39.555Z,1037.63
2018-01-29T00:09:39.470Z,1037.67
2018-01-29T00:10:38.860Z,1037.63
2018-01-29T00:11:38.670Z,1037.62
2018-01-29T00:12:38.674Z,1037.7
2018-01-29T00:13:38.818Z,1037.66
2018-01-29T00:14:38.827Z,1037.66
2018-01-29T00:15:38.878Z,1037.66
2018-01-29T00:16:39.313Z,1037.63
2018-01-29T00:17:38.719Z,1037.62
2018-01-29T00:18:39.285Z,1037.62
2018-01-29T00:19:39.261Z,1037.59
2018-01-29T00:20:38.735Z,1037.58
2018-01-29T00:21:38.857Z,1037.59
2018-01-29T00:22:38.693Z,1037.6
2018-01-29T00:23:39.376Z,1037.59
2018-01-29T00:24:38.794Z,1037.62
2018-01-29T00:25:38.697Z,1037.66
2018-01-29T00:26:38.787Z,1037.65
2018-01-29T00:27:38.852Z,1037.64
2018-01-29T00:28:38.654Z,1037.65
2018-01-29T00:29:39.016Z,1037.64
2018-01-29T00:30:37.912Z,1037.59
2018-01-29T00:31:38.458Z,1037.57
2018-01-29T00:32:37.734Z,1037.57
2018-01-29T00:33:38.691Z,1037.59
2018-01-29T00:34:37.848Z,1037.6
2018-01-29T00:35:38.414Z,1037.56
2018-01-29T00:36:39.571Z,1037.57
2018-01-29T00:37:37.908Z,1037.58
2018-01-29T00:38:37.828Z,1037.59
2018-01-29T00:39:37.885Z,1037.58
2018-01-29T00:40:38.615Z,1037.55
2018-01-29T00:41:39.440Z,1037.61
2018-01-29T00:42:37.939Z,1037.55
2018-01-29T00:43:37.950Z,1037.61
2018-01-29T00:44:38.751Z,1037.56
2018-01-29T00:45:38.688Z,1037.61
2018-01-29T00:46:38.687Z,1037.61
2018-01-29T00:47:37.739Z,1037.61
2018-01-29T00:48:38.457Z,1037.57
2018-01-29T00:49:39.236Z,1037.58
2018-01-29T00:50:38.406Z,1037.55
2018-01-29T00:51:38.383Z,1037.54
2018-01-29T00:52:37.823Z,1037.59
2018-01-29T00:53:38.139Z,1037.56
2018-01-29T00:54:38.909Z,1037.57
2018-01-29T00:55:37.819Z,1037.58
2018-01-29T00:56:38.385Z,1037.55
2018-01-29T00:57:37.897Z,1037.53
2018-01-29T00:58:37.990Z,1037.54
2018-01-29T00:59:39.189Z,1037.56
2018-01-29T01:00:37.816Z,1037.51
2018-01-29T01:01:39.127Z,1037.52
2018-01-29T01:02:38.077Z,1037.52
2018-01-29T01:03:37.718Z,1037.56
2018-01-29T01:04:37.787Z,1037.54
2018-01-29T01:05:38.488Z,1037.55
2018-01-29T01:06:37.811Z,1037.57
2018-01-29T01:07:37.774Z,1037.59
2018-01-29T01:08:37.925Z,1037.53
2018-01-29T01:09:37.786Z,1037.55
2018-01-29T01:10:38.313Z,1037.57
2018-01-29T01:11:37.776Z,1037.55
2018-01-29T01:12:37.784Z,1037.52
2018-01-29T01:13:37.914Z,1037.49
2018-01-29T01:14:38.842Z,1037.48
2018-01-29T01:15:37.907Z,1037.48
2018-01-29T01:16:37.789Z,1037.51
2018-01-29T01:17:40.072Z,1037.5
2018-01-29T01:18:37.770Z,1037.5
2018-01-29T01:19:40.197Z,1037.51
2018-01-29T01:20:38.621Z,1037.53
2018-01-29T01:21:38.530Z,1037.59
2018-01-29T01:22:39.374Z,1037.51
2018-01-29T01:23:39.388Z,1037.54
2018-01-29T01:24:38.380Z,1037.51
2018-01-29T01:25:37.844Z,1037.48
2018-01-29T01:26:39.955Z,1037.52
2018-01-29T01:27:38.783Z,1037.5
2018-01-29T01:28:39.067Z,1037.53
2018-01-29T01:29:37.811Z,1037.55
2018-01-29T01:30:37.805Z,1037.55
2018-01-29T01:31:39.192Z,1037.57
2018-01-29T01:32:37.810Z,1037.55
2018-01-29T01:33:38.348Z,1037.56
2018-01-29T01:34:37.719Z,1037.55
2018-01-29T01:35:37.871Z,1037.56
2018-01-29T01:36:39.942Z,1037.57
2018-01-29T01:37:38.593Z,1037.59
2018-01-29T01:38:38.498Z,1037.55
2018-01-29T01:39:37.924Z,1037.57
2018-01-29T01:40:38.696Z,1037.57
2018-01-29T01:41:38.903Z,1037.62
2018-01-29T01:42:38.414Z,1037.58
2018-01-29T01:43:37.780Z,1037.56
2018-01-29T01:44:37.934Z,1037.53
2018-01-29T01:45:38.535Z,1037.54
2018-01-29T01:46:38.054Z,1037.53
2018-01-29T01:47:37.844Z,1037.48
2018-01-29T01:48:38.770Z,1037.49
2018-01-29T01:49:37.933Z,1037.5
2018-01-29T01:50:37.908Z,1037.44
2018-01-29T01:51:37.837Z,1037.45
2018-01-29T01:52:38.031Z,1037.47
2018-01-29T01:53:38.068Z,1037.49
2018-01-29T01:54:37.814Z,1037.44
2018-01-29T01:55:38.476Z,1037.45
2018-01-29T01:56:37.913Z,1037.42
2018-01-29T01:57:37.742Z,1037.34
2018-01-29T01:58:37.860Z,1037.31
2018-01-29T01:59:38.595Z,1037.34
2018-01-29T02:00:38.036Z,1037.32
2018-01-29T02:01:38.559Z,1037.25
2018-01-29T02:02:37.935Z,1037.28
2018-01-29T02:03:39.068Z,1037.21
2018-01-29T02:04:38.598Z,1037.22
2018-01-29T02:05:37.934Z,1037.19
2018-01-29T02:06:38.532Z,1037.23
2018-01-29T02:07:37.804Z,1037.14
2018-01-29T02:08:38.802Z,1037.14
2018-01-29T02:09:38.591Z,1037.13
2018-01-29T02:10:37.842Z,1037.13
2018-01-29T02:11:37.865Z,1037.11
2018-01-29T02:12:40.718Z,1037.13
2018-01-29T02:13:40.060Z,1037.07
2018-01-29T02:14:37.907Z,1037.05
2018-01-29T02:15:39.218Z,1037.07
2018-01-29T02:16:37.940Z,1037.09
2018-01-29T02:17:39.049Z,1037.1
2018-01-29T02:18:37.852Z,1037.11
2018-01-29T02:19:37.987Z,1037.11
2018-01-29T02:20:38.302Z,1037.07
2018-01-29T02:21:38.489Z,1037.08
2018-01-29T02:22:37.944Z,1037.07
2018-01-29T02:23:38.693Z,1037.07
2018-01-29T02:24:37.968Z,1037.09
2018-01-29T02:25:38.439Z,1037.15
2018-01-29T02:26:38.549Z,1037.06
2018-01-29T02:27:38.423Z,1037.08
2018-01-29T02:28:39.692Z,1037.11
2018-01-29T02:29:38.570Z,1037.08
2018-01-29T02:30:38.111Z,1037.08
2018-01-29T02:31:37.960Z,1037.03
2018-01-29T02:32:38.890Z,1037.04
2018-01-29T02:33:38.017Z,1037.03
2018-01-29T02:34:39.676Z,1036.99
2018-01-29T02:35:38.399Z,1037
2018-01-29T02:36:38.629Z,1036.98
2018-01-29T02:37:38.977Z,1036.91
2018-01-29T02:38:37.902Z,1036.9
2018-01-29T02:39:38.070Z,1036.93
2018-01-29T02:40:37.973Z,1036.88
2018-01-29T02:41:38.044Z,1036.88
2018-01-29T02:42:38.780Z,1036.85
2018-01-29T02:43:37.961Z,1036.84
2018-01-29T02:44:37.989Z,1036.82
2018-01-29T02:45:38.963Z,1036.88
2018-01-29T02:46:39.100Z,1036.85
2018-01-29T02:47:39.220Z,1036.87
2018-01-29T02:48:37.922Z,1036.88
2018-01-29T02:49:37.924Z,1036.85
2018-01-29T02:50:37.921Z,1036.88
2018-01-29T02:51:37.887Z,1036.9
2018-01-29T02:52:38.013Z,1036.89
2018-01-29T02:53:38.041Z,1036.85
2018-01-29T02:54:38.053Z,1036.92
2018-01-29T02:55:38.632Z,1036.89
2018-01-29T02:56:38.935Z,1036.91
2018-01-29T02:57:38.844Z,1036.82
2018-01-29T02:58:39.451Z,1036.85
2018-01-29T02:59:38.023Z,1036.8
2018-01-29T03:00:38.730Z,1036.79
2018-01-29T03:01:37.958Z,1036.81
2018-01-29T03:02:37.896Z,1036.84
2018-01-29T03:03:39.219Z,1036.8
2018-01-29T03:04:38.020Z,1036.81
2018-01-29T03:05:38.140Z,1036.83
2018-01-29T03:06:38.747Z,1036.82
2018-01-29T03:07:38.039Z,1036.79
2018-01-29T03:08:37.841Z,1036.75
2018-01-29T03:09:38.104Z,1036.77
2018-01-29T03:10:38.056Z,1036.74
2018-01-29T03:11:37.852Z,1036.74
2018-01-29T03:12:38.082Z,1036.75
2018-01-29T03:13:37.886Z,1036.7
2018-01-29T03:14:38.303Z,1036.73
2018-01-29T03:15:38.960Z,1036.74
2018-01-29T03:16:39.023Z,1036.75
2018-01-29T03:17:38.569Z,1036.73
2018-01-29T03:18:38.656Z,1036.74
2018-01-29T03:19:37.934Z,1036.73
2018-01-29T03:20:38.111Z,1036.76
2018-01-29T03:21:38.116Z,1036.77
2018-01-29T03:22:38.645Z,1036.79
2018-01-29T03:23:37.884Z,1036.84
2018-01-29T03:24:37.954Z,1036.86
2018-01-29T03:25:38.154Z,1036.82
2018-01-29T03:26:39.306Z,1036.78
2018-01-29T03:27:38.104Z,1036.79
2018-01-29T03:28:38.543Z,1036.78
2018-01-29T03:29:39.583Z,1036.79
2018-01-29T03:30:38.205Z,1036.78
2018-01-29T03:31:38.584Z,1036.83
2018-01-29T03:32:38.874Z,1036.78
2018-01-29T03:33:38.056Z,1036.78
2018-01-29T03:34:37.903Z,1036.75
2018-01-29T03:35:39.106Z,1036.7
2018-01-29T03:36:38.187Z,1036.68
2018-01-29T03:37:38.878Z,1036.67
2018-01-29T03:38:38.076Z,1036.66
2018-01-29T03:39:39.286Z,1036.64
2018-01-29T03:40:38.778Z,1036.64
2018-01-29T03:41:37.975Z,1036.65
2018-01-29T03:42:39.836Z,1036.63
2018-01-29T03:43:37.930Z,1036.65
2018-01-29T03:44:37.979Z,1036.66
2018-01-29T03:45:38.697Z,1036.65
2018-01-29T03:46:37.878Z,1036.64
2018-01-29T03:47:38.038Z,1036.64
2018-01-29T03:48:38.117Z,1036.63
2018-01-29T03:49:38.063Z,1036.65
2018-01-29T03:50:38.130Z,1036.67
2018-01-29T03:51:38.227Z,1036.67
2018-01-29T03:52:39.394Z,1036.71
2018-01-29T03:53:39.346Z,1036.72
2018-01-29T03:54:37.976Z,1036.69
2018-01-29T03:55:38.320Z,1036.67
2018-01-29T03:56:38.825Z,1036.73
2018-01-29T03:57:38.130Z,1036.73
2018-01-29T03:58:38.192Z,1036.73
2018-01-29T03:59:38.153Z,1036.73
2018-01-29T04:00:38.230Z,1036.75
2018-01-29T04:01:38.170Z,1036.73
2018-01-29T04:02:39.022Z,1036.68
2018-01-29T04:03:38.058Z,1036.67
2018-01-29T04:04:38.526Z,1036.64
2018-01-29T04:05:38.832Z,1036.66
2018-01-29T04:06:38.080Z,1036.57
2018-01-29T04:07:38.816Z,1036.54
2018-01-29T04:08:38.121Z,1036.53
2018-01-29T04:09:38.027Z,1036.54
2018-01-29T04:10:38.907Z,1036.5
2018-01-29T04:11:38.173Z,1036.47
2018-01-29T04:12:38.181Z,1036.48
2018-01-29T04:13:38.116Z,1036.49
2018-01-29T04:14:38.798Z,1036.47
2018-01-29T04:15:38.013Z,1036.45
2018-01-29T04:16:38.921Z,1036.41
2018-01-29T04:17:38.809Z,1036.36
2018-01-29T04:18:38.796Z,1036.39
2018-01-29T04:19:39.451Z,1036.39
2018-01-29T04:20:38.160Z,1036.26
2018-01-29T04:21:38.120Z,1036.28
2018-01-29T04:22:39.160Z,1036.29
2018-01-29T04:23:38.177Z,1036.3
2018-01-29T04:24:38.009Z,1036.25
2018-01-29T04:25:38.509Z,1036.3
2018-01-29T04:26:38.082Z,1036.22
2018-01-29T04:27:38.599Z,1036.25
2018-01-29T04:28:38.025Z,1036.21
2018-01-29T04:29:38.176Z,1036.21
2018-01-29T04:30:38.245Z,1036.19
2018-01-29T04:31:38.225Z,1036.2
2018-01-29T04:32:38.809Z,1036.13
2018-01-29T04:33:38.122Z,1036.18
2018-01-29T04:34:40.617Z,1036.18
2018-01-29T04:35:38.382Z,1036.15
2018-01-29T04:36:38.131Z,1036.08
2018-01-29T04:37:38.808Z,1036.07
2018-01-29T04:38:38.067Z,1036.07
2018-01-29T04:39:38.623Z,1035.99
2018-01-29T04:40:38.065Z,1036.02
2018-01-29T04:41:38.126Z,1035.97
2018-01-29T04:42:38.312Z,1035.95
2018-01-29T04:43:40.215Z,1035.86
2018-01-29T04:44:38.104Z,1035.88
2018-01-29T04:45:38.809Z,1035.9
2018-01-29T04:46:38.896Z,1035.92
2018-01-29T04:47:38.681Z,1035.88
2018-01-29T04:48:38.087Z,1035.9
2018-01-29T04:49:37.978Z,1035.88
2018-01-29T04:50:38.930Z,1035.85
2018-01-29T04:51:38.324Z,1035.83
2018-01-29T04:52:38.097Z,1035.85
2018-01-29T04:53:38.954Z,1035.86
2018-01-29T04:54:39.175Z,1035.86
2018-01-29T04:55:38.646Z,1035.85
2018-01-29T04:56:38.277Z,1035.84
2018-01-29T04:57:39.413Z,1035.9
2018-01-29T04:58:39.108Z,1035.95
2018-01-29T04:59:39.496Z,1035.96
2018-01-29T05:00:38.228Z,1035.92
2018-01-29T05:01:38.153Z,1035.98
2018-01-29T05:02:38.246Z,1036.01
2018-01-29T05:03:38.141Z,1036.01
2018-01-29T05:04:38.846Z,1035.98
2018-01-29T05:05:38.126Z,1036.01
2018-01-29T05:06:40.952Z,1036.01
2018-01-29T05:07:38.474Z,1036.01
2018-01-29T05:08:38.093Z,1035.91
2018-01-29T05:09:38.183Z,1035.97
2018-01-29T05:10:38.136Z,1035.95
2018-01-29T05:11:38.788Z,1035.96
2018-01-29T05:15:38.965Z,1035.95
2018-01-29T05:16:38.879Z,1036.01
2018-01-29T05:17:38.855Z,1036.04
2018-01-29T05:18:38.177Z,1035.97
2018-01-29T05:19:38.982Z,1036.04
2018-01-29T05:20:38.140Z,1036.02
2018-01-29T05:21:38.169Z,1035.99
2018-01-29T05:22:37.993Z,1035.98
2018-01-29T05:23:39.418Z,1036.03
2018-01-29T05:24:38.176Z,1035.99
2018-01-29T05:25:38.847Z,1036.06
2018-01-29T05:26:38.896Z,1036.01
2018-01-29T05:27:38.162Z,1036.02
2018-01-29T05:28:38.110Z,1036.06
2018-01-29T05:29:38.839Z,1036.11
2018-01-29T05:30:38.303Z,1036.03
2018-01-29T05:31:39.645Z,1036.04
2018-01-29T05:32:38.512Z,1036.1
2018-01-29T05:33:38.891Z,1036.09
2018-01-29T05:34:38.289Z,1036.12
2018-01-29T05:35:38.196Z,1036.05
2018-01-29T05:36:38.189Z,1036.03
2018-01-29T05:37:38.144Z,1036.07
2018-01-29T05:38:38.272Z,1036.05
2018-01-29T05:39:39.468Z,1036.07
2018-01-29T05:40:38.224Z,1036.1
2018-01-29T05:41:39.260Z,1036.07
2018-01-29T05:42:38.203Z,1036.16
2018-01-29T05:43:38.183Z,1036.15
2018-01-29T05:44:38.300Z,1036.14
2018-01-29T05:45:38.456Z,1036.17
2018-01-29T05:46:38.404Z,1036.13
2018-01-29T05:47:40.275Z,1036.08
2018-01-29T05:48:38.303Z,1036.13
2018-01-29T05:49:38.924Z,1036.13
2018-01-29T05:50:38.474Z,1036.09
2018-01-29T05:51:39.112Z,1036.09
2018-01-29T05:52:39.131Z,1036.08
2018-01-29T05:53:38.187Z,1036.03
2018-01-29T05:54:38.291Z,1036.04
2018-01-29T05:55:38.300Z,1036.02
2018-01-29T05:56:39.057Z,1036.01
2018-01-29T05:57:38.375Z,1035.99
2018-01-29T05:58:39.535Z,1035.95
2018-01-29T06:01:57.866Z,1035.98
2018-01-29T06:02:39.492Z,1035.92
2018-01-29T06:03:38.797Z,1035.94
2018-01-29T06:04:38.961Z,1035.95
2018-01-29T06:05:38.724Z,1035.92
2018-01-29T06:06:38.713Z,1035.96
2018-01-29T06:07:40.288Z,1035.94
2018-01-29T06:08:38.719Z,1035.93
2018-01-29T06:09:38.757Z,1035.94
2018-01-29T06:10:39.448Z,1035.98
2018-01-29T06:11:41.943Z,1035.96
2018-01-29T06:12:38.876Z,1035.97
2018-01-29T06:13:38.835Z,1035.99
2018-01-29T06:14:39.766Z,1035.93
2018-01-29T06:15:38.656Z,1035.94
2018-01-29T06:16:42.316Z,1036.01
2018-01-29T06:17:38.788Z,1035.91
2018-01-29T06:18:40.110Z,1035.91
2018-01-29T06:19:38.756Z,1035.95
2018-01-29T06:20:38.784Z,1035.92
2018-01-29T06:21:39.506Z,1035.93
2018-01-29T06:22:39.872Z,1035.91
2018-01-29T06:23:38.880Z,1035.91
2018-01-29T06:24:39.221Z,1035.95
2018-01-29T06:25:38.870Z,1035.97
2018-01-29T06:26:39.404Z,1035.93
2018-01-29T06:27:38.804Z,1035.94
2018-01-29T06:28:39.322Z,1036
2018-01-29T06:29:38.716Z,1036.03
2018-01-29T06:30:38.710Z,1035.97
2018-01-29T06:31:39.722Z,1036.01
2018-01-29T06:32:39.547Z,1036.01
2018-01-29T06:33:38.769Z,1036.01
2018-01-29T06:34:37.854Z,1035.99
2018-01-29T06:35:37.708Z,1035.96
2018-01-29T06:36:37.720Z,1036.03
2018-01-29T06:37:37.803Z,1036.05
2018-01-29T06:38:38.141Z,1035.95
2018-01-29T06:39:37.790Z,1035.97
2018-01-29T06:40:37.753Z,1035.99
2018-01-29T06:41:37.713Z,1035.91
2018-01-29T06:42:37.838Z,1035.92
2018-01-29T06:43:37.846Z,1035.91
2018-01-29T06:44:37.708Z,1035.88
2018-01-29T06:45:37.735Z,1035.85
2018-01-29T06:46:37.787Z,1035.82
2018-01-29T06:47:37.760Z,1035.81
2018-01-29T06:48:37.687Z,1035.84
2018-01-29T06:49:37.704Z,1035.88
2018-01-29T06:50:37.766Z,1035.84
2018-01-29T06:51:37.820Z,1035.86
2018-01-29T06:52:37.795Z,1035.86
2018-01-29T06:53:37.786Z,1035.86
2018-01-29T06:54:38.373Z,1035.88
2018-01-29T06:55:37.816Z,1035.88
2018-01-29T06:56:37.840Z,1035.82
2018-01-29T06:57:37.831Z,1035.86
2018-01-29T06:58:37.867Z,1035.78
2018-01-29T06:59:37.742Z,1035.83
2018-01-29T07:00:37.787Z,1035.82
2018-01-29T07:01:37.857Z,1035.85
2018-01-29T07:02:37.863Z,1035.86
2018-01-29T07:03:38.212Z,1035.82
2018-01-29T07:04:38.017Z,1035.82
2018-01-29T07:05:38.010Z,1035.89
2018-01-29T07:06:38.062Z,1035.89
2018-01-29T07:07:38.127Z,1035.83
2018-01-29T07:08:38.130Z,1035.84
2018-01-29T07:09:38.041Z,1035.82
2018-01-29T07:10:37.984Z,1035.8
2018-01-29T07:11:38.068Z,1035.88
2018-01-29T07:12:38.059Z,1035.78
2018-01-29T07:13:38.082Z,1035.79
2018-01-29T07:14:38.050Z,1035.8
2018-01-29T07:15:38.018Z,1035.76
2018-01-29T07:16:38.030Z,1035.74
2018-01-29T07:17:38.053Z,1035.74
2018-01-29T07:18:38.141Z,1035.74
2018-01-29T07:19:38.086Z,1035.78
2018-01-29T07:20:38.133Z,1035.74
2018-01-29T07:21:38.038Z,1035.8
2018-01-29T07:22:38.299Z,1035.78
2018-01-29T07:23:38.192Z,1035.73
2018-01-29T07:24:38.236Z,1035.79
2018-01-29T07:25:38.249Z,1035.81
2018-01-29T07:26:38.163Z,1035.76
2018-01-29T07:27:38.048Z,1035.73
2018-01-29T07:28:38.086Z,1035.77
2018-01-29T07:29:37.993Z,1035.77
2018-01-29T07:30:38.122Z,1035.77
2018-01-29T07:31:38.065Z,1035.8
2018-01-29T07:32:38.057Z,1035.81
2018-01-29T07:33:38.255Z,1035.79
2018-01-29T07:34:38.164Z,1035.76
2018-01-29T07:35:38.142Z,1035.81
2018-01-29T07:36:38.254Z,1035.81
2018-01-29T07:37:38.148Z,1035.84
2018-01-29T07:38:38.161Z,1035.76
2018-01-29T07:39:38.208Z,1035.78
2018-01-29T07:40:38.213Z,1035.78
2018-01-29T07:41:38.106Z,1035.76
2018-01-29T07:42:38.330Z,1035.77
2018-01-29T07:43:38.177Z,1035.73
2018-01-29T07:44:38.274Z,1035.8
2018-01-29T07:45:38.265Z,1035.71
2018-01-29T07:46:38.300Z,1035.71
2018-01-29T07:47:38.203Z,1035.69
2018-01-29T07:48:38.319Z,1035.67
2018-01-29T07:49:38.236Z,1035.74
2018-01-29T07:50:38.388Z,1035.67
2018-01-29T07:51:38.224Z,1035.69
2018-01-29T07:52:38.278Z,1035.64
2018-01-29T07:53:38.274Z,1035.71
2018-01-29T07:54:38.270Z,1035.72
2018-01-29T07:55:38.338Z,1035.67
2018-01-29T07:56:38.306Z,1035.69
2018-01-29T07:57:38.264Z,1035.65
2018-01-29T07:58:38.255Z,1035.66
2018-01-29T07:59:38.210Z,1035.69
2018-01-29T08:00:38.226Z,1035.65
2018-01-29T08:01:38.202Z,1035.59
2018-01-29T08:02:38.233Z,1035.68
2018-01-29T08:03:38.373Z,1035.62
2018-01-29T08:04:38.296Z,1035.61
2018-01-29T08:05:38.303Z,1035.64
2018-01-29T08:06:38.259Z,1035.65
2018-01-29T08:07:38.290Z,1035.62
2018-01-29T08:08:38.261Z,1035.64
2018-01-29T08:09:38.359Z,1035.69
2018-01-29T08:10:38.379Z,1035.67
2018-01-29T08:11:38.461Z,1035.67
2018-01-29T08:12:38.312Z,1035.64
2018-01-29T08:13:38.257Z,1035.68
2018-01-29T08:14:38.279Z,1035.63
2018-01-29T08:15:38.315Z,1035.63
2018-01-29T08:16:38.290Z,1035.66
2018-01-29T08:17:38.257Z,1035.64
2018-01-29T08:18:38.304Z,1035.58
2018-01-29T08:19:38.271Z,1035.57
2018-01-29T08:20:38.317Z,1035.55
2018-01-29T08:21:38.372Z,1035.52
2018-01-29T08:22:38.338Z,1035.5
2018-01-29T08:23:38.452Z,1035.48
2018-01-29T08:24:38.271Z,1035.44
2018-01-29T08:25:38.273Z,1035.44
2018-01-29T08:26:38.256Z,1035.46
2018-01-29T08:27:38.339Z,1035.46
2018-01-29T08:28:38.562Z,1035.44
2018-01-29T08:29:38.235Z,1035.45
2018-01-29T08:30:38.302Z,1035.42
2018-01-29T08:31:38.325Z,1035.4
2018-01-29T08:32:38.334Z,1035.41
2018-01-29T08:33:38.483Z,1035.39
2018-01-29T08:34:38.285Z,1035.39
2018-01-29T08:35:38.322Z,1035.33
2018-01-29T08:36:38.461Z,1035.3
2018-01-29T08:37:38.286Z,1035.33
2018-01-29T08:38:38.375Z,1035.3
2018-01-29T08:39:38.333Z,1035.23
2018-01-29T08:40:38.325Z,1035.2
2018-01-29T08:41:38.382Z,1035.18
2018-01-29T08:42:38.308Z,1035.2
2018-01-29T08:43:38.391Z,1035.23
2018-01-29T08:44:38.304Z,1035.16
2018-01-29T08:45:38.308Z,1035.14
2018-01-29T08:46:38.302Z,1035.14
2018-01-29T08:47:38.309Z,1035.13
2018-01-29T08:48:38.438Z,1035.1
2018-01-29T08:49:38.290Z,1035.12
2018-01-29T08:50:38.350Z,1035.09
2018-01-29T08:51:38.370Z,1035.14
2018-01-29T08:52:38.822Z,1035.11
2018-01-29T08:53:38.347Z,1035.15
2018-01-29T08:54:38.342Z,1035.13
2018-01-29T08:55:38.318Z,1035.16
2018-01-29T08:56:38.369Z,1035.2
2018-01-29T08:57:38.443Z,1035.2
2018-01-29T08:58:38.480Z,1035.14
2018-01-29T08:59:38.407Z,1035.14
2018-01-29T09:00:39.416Z,1035.23
2018-01-29T09:01:38.268Z,1035.14
2018-01-29T09:02:38.337Z,1035.2
2018-01-29T09:03:38.430Z,1035.21
2018-01-29T09:04:38.333Z,1035.18
2018-01-29T09:05:38.736Z,1035.16
2018-01-29T09:06:38.600Z,1035.18
2018-01-29T09:07:38.496Z,1035.16
2018-01-29T09:08:38.317Z,1035.16
2018-01-29T09:09:38.365Z,1035.16
2018-01-29T09:10:38.534Z,1035.18
2018-01-29T09:11:38.420Z,1035.19
2018-01-29T09:12:38.444Z,1035.19
2018-01-29T09:13:38.327Z,1035.18
2018-01-29T09:14:38.387Z,1035.18
2018-01-29T09:15:38.351Z,1035.15
2018-01-29T09:16:38.519Z,1035.09
2018-01-29T09:17:38.406Z,1035.13
2018-01-29T09:18:38.442Z,1035.09
2018-01-29T09:19:38.338Z,1035.08
2018-01-29T09:20:38.348Z,1035.03
2018-01-29T09:21:38.427Z,1035.05
2018-01-29T09:22:38.459Z,1035.05
2018-01-29T09:23:38.361Z,1035.05
2018-01-29T09:24:38.301Z,1035.01
2018-01-29T09:25:38.450Z,1035
2018-01-29T09:26:38.327Z,1035.01
2018-01-29T09:27:38.452Z,1034.98
2018-01-29T09:28:38.408Z,1034.96
2018-01-29T09:29:38.442Z,1034.95
2018-01-29T09:30:38.424Z,1034.91
2018-01-29T09:31:38.456Z,1034.93
2018-01-29T09:32:38.452Z,1035
2018-01-29T09:33:38.537Z,1034.92
2018-01-29T09:34:38.401Z,1034.99
2018-01-29T09:35:38.418Z,1034.96
2018-01-29T09:36:38.476Z,1034.95
2018-01-29T09:37:38.462Z,1034.92
2018-01-29T09:38:38.710Z,1034.9
2018-01-29T09:39:38.422Z,1034.94
2018-01-29T09:40:39.343Z,1034.89
2018-01-29T09:41:38.740Z,1034.9
2018-01-29T09:42:38.757Z,1034.88
2018-01-29T09:43:38.480Z,1034.9
2018-01-29T09:44:38.753Z,1034.9
2018-01-29T09:45:38.603Z,1034.87
2018-01-29T09:46:38.479Z,1034.92
2018-01-29T09:47:38.417Z,1034.84
2018-01-29T09:48:38.431Z,1034.78
2018-01-29T09:49:38.513Z,1034.8
2018-01-29T09:50:38.403Z,1034.78
2018-01-29T09:51:39.017Z,1034.79
2018-01-29T09:52:38.482Z,1034.74
2018-01-29T09:53:38.620Z,1034.75
2018-01-29T09:54:38.504Z,1034.77
2018-01-29T09:55:38.398Z,1034.76
2018-01-29T09:56:38.846Z,1034.82
2018-01-29T09:57:38.919Z,1034.82
2018-01-29T09:58:38.555Z,1034.87
2018-01-29T09:59:38.371Z,1034.9
2018-01-29T10:00:38.444Z,1034.88
2018-01-29T10:01:38.675Z,1034.9
2018-01-29T10:02:38.412Z,1034.89
2018-01-29T10:03:38.712Z,1034.85
2018-01-29T10:04:38.451Z,1034.89
2018-01-29T10:05:38.395Z,1034.9
2018-01-29T10:06:38.553Z,1034.8
2018-01-29T10:07:38.442Z,1034.85
2018-01-29T10:08:38.493Z,1034.83
2018-01-29T10:09:38.367Z,1034.8
2018-01-29T10:10:38.445Z,1034.82
2018-01-29T10:11:38.313Z,1034.78
2018-01-29T10:12:38.440Z,1034.78
2018-01-29T10:13:38.418Z,1034.74
2018-01-29T10:14:38.364Z,1034.72
2018-01-29T10:15:38.384Z,1034.71
2018-01-29T10:16:38.391Z,1034.61
2018-01-29T10:17:38.473Z,1034.63
2018-01-29T10:18:38.430Z,1034.68
2018-01-29T10:19:38.446Z,1034.64
2018-01-29T10:20:38.520Z,1034.59
2018-01-29T10:21:38.458Z,1034.62
2018-01-29T10:22:38.454Z,1034.65
2018-01-29T10:23:38.513Z,1034.57
2018-01-29T10:24:38.474Z,1034.57
2018-01-29T10:25:38.453Z,1034.57
2018-01-29T10:26:38.426Z,1034.54
2018-01-29T10:27:38.501Z,1034.56
2018-01-29T10:28:38.463Z,1034.5
2018-01-29T10:29:38.381Z,1034.54
2018-01-29T10:30:38.343Z,1034.54
2018-01-29T10:31:38.327Z,1034.53
2018-01-29T10:32:38.513Z,1034.43
2018-01-29T10:33:38.476Z,1034.42
2018-01-29T10:34:38.456Z,1034.41
2018-01-29T10:35:38.504Z,1034.36
2018-01-29T10:36:38.421Z,1034.33
2018-01-29T10:37:38.457Z,1034.33
2018-01-29T10:38:38.406Z,1034.29
2018-01-29T10:39:38.516Z,1034.29
2018-01-29T10:40:38.361Z,1034.3
2018-01-29T10:41:38.428Z,1034.28
2018-01-29T10:42:38.564Z,1034.31
2018-01-29T10:43:38.504Z,1034.27
2018-01-29T10:44:38.507Z,1034.26
2018-01-29T10:45:38.509Z,1034.25
2018-01-29T10:46:38.528Z,1034.23
2018-01-29T10:47:38.606Z,1034.23
2018-01-29T10:48:38.507Z,1034.21
2018-01-29T10:49:38.961Z,1034.25
2018-01-29T10:50:38.624Z,1034.23
2018-01-29T10:51:38.453Z,1034.18
2018-01-29T10:52:38.386Z,1034.2
2018-01-29T10:53:38.521Z,1034.19
2018-01-29T10:54:38.475Z,1034.15
2018-01-29T10:55:38.534Z,1034.13
2018-01-29T10:56:38.438Z,1034.1
2018-01-29T11:00:38.833Z,1034.01
2018-01-29T11:01:38.470Z,1034.04
2018-01-29T11:02:38.581Z,1034.08
2018-01-29T11:03:38.810Z,1034.01
2018-01-29T11:04:38.633Z,1034.08
2018-01-29T11:05:39.244Z,1033.99
2018-01-29T11:06:38.607Z,1034
2018-01-29T11:07:38.705Z,1033.98
2018-01-29T11:08:38.693Z,1033.91
2018-01-29T11:09:38.775Z,1033.92
2018-01-29T11:10:38.888Z,1033.88
2018-01-29T11:11:38.753Z,1033.88
2018-01-29T11:12:38.576Z,1033.87
2018-01-29T11:13:38.709Z,1033.84
2018-01-29T11:14:38.828Z,1033.83
2018-01-29T11:15:38.716Z,1033.8
2018-01-29T11:16:38.674Z,1033.83
2018-01-29T11:17:38.658Z,1033.8
2018-01-29T11:18:38.656Z,1033.81
2018-01-29T11:19:38.686Z,1033.81
2018-01-29T11:20:38.643Z,1033.74
2018-01-29T11:21:38.654Z,1033.78
2018-01-29T11:22:38.645Z,1033.8
2018-01-29T11:23:38.621Z,1033.84
2018-01-29T11:24:38.806Z,1033.83
2018-01-29T11:25:38.595Z,1033.75
2018-01-29T11:26:38.673Z,1033.76
2018-01-29T11:27:38.835Z,1033.75
2018-01-29T11:28:38.649Z,1033.73
2018-01-29T11:29:38.769Z,1033.68
2018-01-29T11:30:38.687Z,1033.77
2018-01-29T11:31:38.809Z,1033.77
2018-01-29T11:32:38.719Z,1033.81
2018-01-29T11:33:38.911Z,1033.82
2018-01-29T11:34:39.009Z,1033.84
2018-01-29T11:35:38.656Z,1033.69
2018-01-29T11:36:38.726Z,1033.71
2018-01-29T11:37:38.666Z,1033.76
2018-01-29T11:38:38.730Z,1033.7
2018-01-29T11:39:38.715Z,1033.71
2018-01-29T11:40:38.695Z,1033.63
2018-01-29T11:41:38.721Z,1033.67
2018-01-29T11:42:38.748Z,1033.69
2018-01-29T11:43:38.775Z,1033.62
2018-01-29T11:44:38.745Z,1033.62
2018-01-29T11:45:38.728Z,1033.55
2018-01-29T11:46:38.815Z,1033.53
2018-01-29T11:47:38.840Z,1033.5
2018-01-29T11:48:38.928Z,1033.49
2018-01-29T11:49:38.948Z,1033.51
2018-01-29T11:50:38.701Z,1033.49
2018-01-29T11:51:38.805Z,1033.46
2018-01-29T11:52:38.941Z,1033.44
2018-01-29T11:53:38.742Z,1033.39
2018-01-29T11:54:38.904Z,1033.44
2018-01-29T11:55:38.668Z,1033.43
2018-01-29T11:56:38.706Z,1033.41
2018-01-29T11:57:38.664Z,1033.43
2018-01-29T11:58:38.805Z,1033.44
2018-01-29T12:00:38.678Z,1033.42
2018-01-29T12:01:38.629Z,1033.39
2018-01-29T12:02:38.787Z,1033.37
2018-01-29T12:03:39.426Z,1033.39
2018-01-29T12:04:37.980Z,1033.35
2018-01-29T12:05:38.033Z,1033.31
2018-01-29T12:06:38.419Z,1033.32
2018-01-29T12:07:37.978Z,1033.23
2018-01-29T12:08:38.056Z,1033.22
2018-01-29T12:09:38.045Z,1033.19
2018-01-29T12:10:38.114Z,1033.18
2018-01-29T12:11:38.040Z,1033.21
2018-01-29T12:12:38.375Z,1033.17
2018-01-29T12:13:37.984Z,1033.19
2018-01-29T12:14:37.967Z,1033.1
2018-01-29T12:15:38.203Z,1033.13
2018-01-29T12:16:38.015Z,1033.13
2018-01-29T12:17:38.148Z,1033.1